sensor_id;sensor_type;location;lat;lon;timestamp;pressure;altitude;pressure_sealevel;temperature;humidity
17950;BME280;9100;48.700;9.316;2022-08-19T00:00:04;97286.3;;;23.39;100
17950;BME280;9100;48.700;9.316;2022-08-19T00:00:41;97285.2;;;23.4;100
17950;BME280;9100;48.700;9.316;2022-08-19T00:01:42;97288.9;;;23.39;100
17950;BME280;9100;48.700;9.316;2022-08-19T00:02:42;97282.1;;;23.38;100
17950;BME280;9100;48.700;9.316;2022-08-19T00:03:41;97292;;;23.36;100
17950;BME280;9100;48.700;9.316;2022-08-19T00:04:42;97296;;;23.33;100
17950;BME280;9100;48.700;9.316;2022-08-19T00:05:04;97295.2;;;23.33;100
17950;BME280;9100;48.700;9.316;2022-08-19T00:05:42;97289.20000000001;;;23.32;100
17950;BME280;9100;48.700;9.316;2022-08-19T00:06:42;97298.8;;;23.32;100
17950;BME280;9100;48.700;9.316;2022-08-19T00:07:42;97291.3;;;23.3;100
17950;BME280;9100;48.700;9.316;2022-08-19T00:08:42;97293.4;;;23.28;100
17950;BME280;9100;48.700;9.316;2022-08-19T00:09:41;97295.5;;;23.26;100
17950;BME280;9100;48.700;9.316;2022-08-19T00:10:04;97293.1;;;23.25;100
17950;BME280;9100;48.700;9.316;2022-08-19T00:10:42;97299.1;;;23.25;100
17950;BME280;9100;48.700;9.316;2022-08-19T00:11:42;97303.59999999999;;;23.25;100
17950;BME280;9100;48.700;9.316;2022-08-19T00:12:42;97299.40000000001;;;23.24;100
17950;BME280;9100;48.700;9.316;2022-08-19T00:13:41;97295.2;;;23.23;100
17950;BME280;9100;48.700;9.316;2022-08-19T00:14:42;97299.1;;;23.2;100
17950;BME280;9100;48.700;9.316;2022-08-19T00:15:04;97294.7;;;23.2;100
17950;BME280;9100;48.700;9.316;2022-08-19T00:15:41;97292.1;;;23.2;100
17950;BME280;9100;48.700;9.316;2022-08-19T00:16:42;97295;;;23.19;100
17950;BME280;9100;48.700;9.316;2022-08-19T00:17:42;97290.8;;;23.18;100
17950;BME280;9100;48.700;9.316;2022-08-19T00:18:42;97290.3;;;23.16;100
17950;BME280;9100;48.700;9.316;2022-08-19T00:19:42;97289;;;23.13;100
17950;BME280;9100;48.700;9.316;2022-08-19T00:20:04;97287.2;;;23.14;100
17950;BME280;9100;48.700;9.316;2022-08-19T00:20:41;97288.2;;;23.13;100
17950;BME280;9100;48.700;9.316;2022-08-19T00:21:41;97291.09999999999;;;23.11;100
17950;BME280;9100;48.700;9.316;2022-08-19T00:22:42;97286.2;;;23.1;100
17950;BME280;9100;48.700;9.316;2022-08-19T00:23:42;97295.8;;;23.09;100
17950;BME280;9100;48.700;9.316;2022-08-19T00:24:42;97288.5;;;23.06;100
17950;BME280;9100;48.700;9.316;2022-08-19T00:25:04;97294.5;;;23.07;100
17950;BME280;9100;48.700;9.316;2022-08-19T00:25:42;97288.5;;;23.06;100
17950;BME280;9100;48.700;9.316;2022-08-19T00:26:42;97282.8;;;23.04;100
17950;BME280;9100;48.700;9.316;2022-08-19T00:27:42;97283.8;;;23.03;100
17950;BME280;9100;48.700;9.316;2022-08-19T00:28:41;97284.90000000001;;;23.02;100
17950;BME280;9100;48.700;9.316;2022-08-19T00:29:42;97281.8;;;23;100
17950;BME280;9100;48.700;9.316;2022-08-19T00:30:04;97281.8;;;23;100
17950;BME280;9100;48.700;9.316;2022-08-19T00:30:42;97283.3;;;23.01;100
17950;BME280;9100;48.700;9.316;2022-08-19T00:31:42;97276.5;;;23;100
17950;BME280;9100;48.700;9.316;2022-08-19T00:32:42;97273.2;;;23;100
17950;BME280;9100;48.700;9.316;2022-08-19T00:33:41;97269.8;;;22.99;100
17950;BME280;9100;48.700;9.316;2022-08-19T00:34:42;97264.8;;;22.98;100
17950;BME280;9100;48.700;9.316;2022-08-19T00:35:04;97266.6;;;22.97;100
17950;BME280;9100;48.700;9.316;2022-08-19T00:35:41;97218.3;;;22.66;100
17950;BME280;9100;48.700;9.316;2022-08-19T00:36:42;97261.40000000001;;;22.97;100
17950;BME280;9100;48.700;9.316;2022-08-19T00:37:41;97262.5;;;22.96;100
17950;BME280;9100;48.700;9.316;2022-08-19T00:38:42;97250.5;;;22.95;100
17950;BME280;9100;48.700;9.316;2022-08-19T00:39:42;97265.59999999999;;;22.93;100
17950;BME280;9100;48.700;9.316;2022-08-19T00:40:04;97261.5;;;22.92;100
17950;BME280;9100;48.700;9.316;2022-08-19T00:40:42;97268.7;;;22.95;100
17950;BME280;9100;48.700;9.316;2022-08-19T00:41:42;97268.7;;;22.95;100
17950;BME280;9100;48.700;9.316;2022-08-19T00:42:42;97265.09999999999;;;22.96;100
17950;BME280;9100;48.700;9.316;2022-08-19T00:43:42;97272.40000000001;;;22.94;100
17950;BME280;9100;48.700;9.316;2022-08-19T00:44:42;97274;;;22.95;100
17950;BME280;9100;48.700;9.316;2022-08-19T00:45:05;97280;;;22.96;100
17950;BME280;9100;48.700;9.316;2022-08-19T00:45:42;97270.3;;;22.96;100
17950;BME280;9100;48.700;9.316;2022-08-19T00:46:43;97268.7;;;22.95;100
17950;BME280;9100;48.700;9.316;2022-08-19T00:47:42;97272.1;;;22.96;100
17950;BME280;9100;48.700;9.316;2022-08-19T00:48:42;97274;;;22.95;100
17950;BME280;9100;48.700;9.316;2022-08-19T00:49:43;97265.59999999999;;;22.93;100
17950;BME280;9100;48.700;9.316;2022-08-19T00:50:04;97269.3;;;22.92;100
17950;BME280;9100;48.700;9.316;2022-08-19T00:50:42;97275;;;22.94;100
17950;BME280;9100;48.700;9.316;2022-08-19T00:51:42;97274.5;;;22.92;100
17950;BME280;9100;48.700;9.316;2022-08-19T00:52:43;97281.8;;;22.9;100
17950;BME280;9100;48.700;9.316;2022-08-19T00:53:42;97281.8;;;22.9;100
17950;BME280;9100;48.700;9.316;2022-08-19T00:54:42;97277.9;;;22.88;100
17950;BME280;9100;48.700;9.316;2022-08-19T00:55:04;97277.09999999999;;;22.87;100
17950;BME280;9100;48.700;9.316;2022-08-19T00:55:42;97271.1;;;22.87;100
17950;BME280;9100;48.700;9.316;2022-08-19T00:56:42;97274;;;22.85;100
17950;BME280;9100;48.700;9.316;2022-08-19T00:57:43;97275.3;;;22.83;100
17950;BME280;9100;48.700;9.316;2022-08-19T00:58:42;97270.4;;;22.81;100
17950;BME280;9100;48.700;9.316;2022-08-19T00:59:42;97276.59999999999;;;22.8;100
17950;BME280;9100;48.700;9.316;2022-08-19T01:00:05;97279.5;;;22.79;100
17950;BME280;9100;48.700;9.316;2022-08-19T01:00:42;97269.8;;;22.79;100
17950;BME280;9100;48.700;9.316;2022-08-19T01:01:42;97276.9;;;22.79;100
17950;BME280;9100;48.700;9.316;2022-08-19T01:02:42;97271.7;;;22.79;100
17950;BME280;9100;48.700;9.316;2022-08-19T01:03:41;97280.8;;;22.76;100
17950;BME280;9100;48.700;9.316;2022-08-19T01:04:42;97274;;;22.75;100
17950;BME280;9100;48.700;9.316;2022-08-19T01:05:05;97279.2;;;22.75;100
17950;BME280;9100;48.700;9.316;2022-08-19T01:05:42;97276.59999999999;;;22.75;100
17950;BME280;9100;48.700;9.316;2022-08-19T01:06:42;97279.2;;;22.75;100
17950;BME280;9100;48.700;9.316;2022-08-19T01:07:42;97282.9;;;22.74;100
17950;BME280;9100;48.700;9.316;2022-08-19T01:08:42;97276.9;;;22.74;100
17950;BME280;9100;48.700;9.316;2022-08-19T01:09:42;97280.5;;;22.73;100
17950;BME280;9100;48.700;9.316;2022-08-19T01:10:04;97274.5;;;22.72;100
17950;BME280;9100;48.700;9.316;2022-08-19T01:10:43;97273.5;;;22.73;100
17950;BME280;9100;48.700;9.316;2022-08-19T01:11:42;97283.4;;;22.71;100
17950;BME280;9100;48.700;9.316;2022-08-19T01:12:42;97278.2;;;22.71;100
17950;BME280;9100;48.700;9.316;2022-08-19T01:13:42;97270.7;;;22.69;100
17950;BME280;9100;48.700;9.316;2022-08-19T01:14:42;97260.5;;;22.68;100
17950;BME280;9100;48.700;9.316;2022-08-19T01:15:04;97258.4;;;22.65;100
17950;BME280;9100;48.700;9.316;2022-08-19T01:15:43;97265.4;;;22.69;100
17950;BME280;9100;48.700;9.316;2022-08-19T01:16:42;97257.9;;;22.68;100
17950;BME280;9100;48.700;9.316;2022-08-19T01:17:42;97271.90000000001;;;22.67;100
17950;BME280;9100;48.700;9.316;2022-08-19T01:18:42;97270.4;;;22.66;100
17950;BME280;9100;48.700;9.316;2022-08-19T01:19:42;97268;;;22.64;100
17950;BME280;9100;48.700;9.316;2022-08-19T01:20:04;97264.4;;;22.65;100
17950;BME280;9100;48.700;9.316;2022-08-19T01:20:42;97269.6;;;22.65;100
17950;BME280;9100;48.700;9.316;2022-08-19T01:21:43;97270.4;;;22.66;100
17950;BME280;9100;48.700;9.316;2022-08-19T01:22:43;97268;;;22.64;100
17950;BME280;9100;48.700;9.316;2022-08-19T01:23:42;97265.7;;;22.63;100
17950;BME280;9100;48.700;9.316;2022-08-19T01:24:42;97267.8;;;22.61;100
17950;BME280;9100;48.700;9.316;2022-08-19T01:25:04;97267.8;;;22.61;100
17950;BME280;9100;48.700;9.316;2022-08-19T01:25:42;97263.3;;;22.61;100
17950;BME280;9100;48.700;9.316;2022-08-19T01:26:43;97266.2;;;22.6;100
17950;BME280;9100;48.700;9.316;2022-08-19T01:27:43;97263.09999999999;;;22.58;100
17950;BME280;9100;48.700;9.316;2022-08-19T01:28:42;97260;;;22.56;100
17950;BME280;9100;48.700;9.316;2022-08-19T01:29:42;97263.59999999999;;;22.55;100
17950;BME280;9100;48.700;9.316;2022-08-19T01:30:04;97264.4;;;22.55;100
17950;BME280;9100;48.700;9.316;2022-08-19T01:30:42;97260;;;22.56;100
17950;BME280;9100;48.700;9.316;2022-08-19T01:31:42;97262.59999999999;;;22.56;100
17950;BME280;9100;48.700;9.316;2022-08-19T01:32:42;97258.4;;;22.55;100
17950;BME280;9100;48.700;9.316;2022-08-19T01:33:42;97258.4;;;22.55;100
17950;BME280;9100;48.700;9.316;2022-08-19T01:34:42;97256.1;;;22.53;100
17950;BME280;9100;48.700;9.316;2022-08-19T01:35:04;97258.7;;;22.53;100
17950;BME280;9100;48.700;9.316;2022-08-19T01:35:42;97256.9;;;22.54;100
17950;BME280;9100;48.700;9.316;2022-08-19T01:36:43;97262.09999999999;;;22.54;100
17950;BME280;9100;48.700;9.316;2022-08-19T01:37:43;97259.5;;;22.54;100
17950;BME280;9100;48.700;9.316;2022-08-19T01:38:42;97259.5;;;22.54;100
17950;BME280;9100;48.700;9.316;2022-08-19T01:39:42;97259.7;;;22.52;100
17950;BME280;9100;48.700;9.316;2022-08-19T01:40:04;97260.5;;;22.53;100
17950;BME280;9100;48.700;9.316;2022-08-19T01:40:42;97264.09999999999;;;22.52;100
17950;BME280;9100;48.700;9.316;2022-08-19T01:41:42;97260;;;22.51;100
17950;BME280;9100;48.700;9.316;2022-08-19T01:42:42;97260;;;22.51;100
17950;BME280;9100;48.700;9.316;2022-08-19T01:43:42;97260.2;;;22.49;100
17950;BME280;9100;48.700;9.316;2022-08-19T01:44:42;97253.5;;;22.48;100
17950;BME280;9100;48.700;9.316;2022-08-19T01:45:04;97253.5;;;22.48;100
17950;BME280;9100;48.700;9.316;2022-08-19T01:45:42;97256.6;;;22.5;100
17950;BME280;9100;48.700;9.316;2022-08-19T01:46:42;97255.8;;;22.5;100
17950;BME280;9100;48.700;9.316;2022-08-19T01:47:42;97259.5;;;22.49;100
17950;BME280;9100;48.700;9.316;2022-08-19T01:48:42;97257.9;;;22.48;100
17950;BME280;9100;48.700;9.316;2022-08-19T01:49:42;97257.9;;;22.48;100
17950;BME280;9100;48.700;9.316;2022-08-19T01:50:05;97255.3;;;22.48;100
17950;BME280;9100;48.700;9.316;2022-08-19T01:50:42;97245.9;;;22.47;100
17950;BME280;9100;48.700;9.316;2022-08-19T01:51:42;97255.6;;;22.46;100
17950;BME280;9100;48.700;9.316;2022-08-19T01:52:42;97261.6;;;22.47;100
17950;BME280;9100;48.700;9.316;2022-08-19T01:53:42;97261.6;;;22.47;100
17950;BME280;9100;48.700;9.316;2022-08-19T01:54:42;97251.70000000001;;;22.44;100
17950;BME280;9100;48.700;9.316;2022-08-19T01:55:05;97259.2;;;22.45;100
17950;BME280;9100;48.700;9.316;2022-08-19T01:55:42;97254;;;22.45;100
17950;BME280;9100;48.700;9.316;2022-08-19T01:56:42;97251.4;;;22.45;100
17950;BME280;9100;48.700;9.316;2022-08-19T01:57:42;97257.7;;;22.44;100
17950;BME280;9100;48.700;9.316;2022-08-19T01:58:43;97263.9;;;22.43;100
17950;BME280;9100;48.700;9.316;2022-08-19T01:59:42;97262.09999999999;;;22.44;100
17950;BME280;9100;48.700;9.316;2022-08-19T02:00:05;97263.09999999999;;;22.43;100
17950;BME280;9100;48.700;9.316;2022-08-19T02:00:42;97257.7;;;22.44;100
17950;BME280;9100;48.700;9.316;2022-08-19T02:01:42;97261;;;22.45;100
17950;BME280;9100;48.700;9.316;2022-08-19T02:02:42;97256.9;;;22.44;100
17950;BME280;9100;48.700;9.316;2022-08-19T02:03:42;97261.3;;;22.43;100
17950;BME280;9100;48.700;9.316;2022-08-19T02:04:42;97259.7;;;22.42;100
17950;BME280;9100;48.700;9.316;2022-08-19T02:05:04;97260.5;;;22.43;100
17950;BME280;9100;48.700;9.316;2022-08-19T02:05:42;97265.7;;;22.43;100
17950;BME280;9100;48.700;9.316;2022-08-19T02:06:42;97257.1;;;22.42;100
17950;BME280;9100;48.700;9.316;2022-08-19T02:07:42;97254.5;;;22.42;100
17950;BME280;9100;48.700;9.316;2022-08-19T02:08:42;97263.09999999999;;;22.43;100
17950;BME280;9100;48.700;9.316;2022-08-19T02:09:42;97254.8;;;22.41;100
17950;BME280;9100;48.700;9.316;2022-08-19T02:10:04;97264.4;;;22.4;100
17950;BME280;9100;48.700;9.316;2022-08-19T02:10:42;97260.5;;;22.43;100
17950;BME280;9100;48.700;9.316;2022-08-19T02:11:42;97256.3;;;22.42;100
17950;BME280;9100;48.700;9.316;2022-08-19T02:12:42;97256.6;;;22.4;100
17950;BME280;9100;48.700;9.316;2022-08-19T02:13:42;97248;;;22.4;100
17950;BME280;9100;48.700;9.316;2022-08-19T02:14:42;97249.1;;;22.39;100
17950;BME280;9100;48.700;9.316;2022-08-19T02:15:04;97251.70000000001;;;22.39;100
17950;BME280;9100;48.700;9.316;2022-08-19T02:15:42;97251.4;;;22.4;100
17950;BME280;9100;48.700;9.316;2022-08-19T02:16:42;97252.5;;;22.39;100
17950;BME280;9100;48.700;9.316;2022-08-19T02:17:42;97254.3;;;22.39;100
17950;BME280;9100;48.700;9.316;2022-08-19T02:18:42;97260.29999999999;;;22.39;100
17950;BME280;9100;48.700;9.316;2022-08-19T02:19:42;97255.3;;;22.38;100
17950;BME280;9100;48.700;9.316;2022-08-19T02:20:04;97264.70000000001;;;22.39;100
17950;BME280;9100;48.700;9.316;2022-08-19T02:20:42;97260.29999999999;;;22.39;100
17950;BME280;9100;48.700;9.316;2022-08-19T02:21:42;97263.09999999999;;;22.38;100
17950;BME280;9100;48.700;9.316;2022-08-19T02:22:42;97264.70000000001;;;22.39;100
17950;BME280;9100;48.700;9.316;2022-08-19T02:23:42;97268.3;;;22.38;100
17950;BME280;9100;48.700;9.316;2022-08-19T02:24:42;97272.79999999999;;;22.37;100
17950;BME280;9100;48.700;9.316;2022-08-19T02:25:04;97266.8;;;22.37;100
17950;BME280;9100;48.700;9.316;2022-08-19T02:25:42;97272.79999999999;;;22.37;100
17950;BME280;9100;48.700;9.316;2022-08-19T02:26:42;97274.90000000001;;;22.35;100
17950;BME280;9100;48.700;9.316;2022-08-19T02:27:42;97272.5;;;22.34;100
17950;BME280;9100;48.700;9.316;2022-08-19T02:28:42;97274.59999999999;;;22.32;100
17950;BME280;9100;48.700;9.316;2022-08-19T02:29:42;97276.70000000001;;;22.3;100
17950;BME280;9100;48.700;9.316;2022-08-19T02:30:05;97268.6;;;22.31;100
17950;BME280;9100;48.700;9.316;2022-08-19T02:30:42;97269.4;;;22.32;100
17950;BME280;9100;48.700;9.316;2022-08-19T02:31:42;97270.4;;;22.31;100
17950;BME280;9100;48.700;9.316;2022-08-19T02:32:42;97267;;;22.3;100
17950;BME280;9100;48.700;9.316;2022-08-19T02:33:42;97264.70000000001;;;22.29;100
17950;BME280;9100;48.700;9.316;2022-08-19T02:34:42;97269.1;;;22.28;100
17950;BME280;9100;48.700;9.316;2022-08-19T02:35:04;97261.3;;;22.28;100
17950;BME280;9100;48.700;9.316;2022-08-19T02:35:42;97262.90000000001;;;22.29;100
17950;BME280;9100;48.700;9.316;2022-08-19T02:36:42;97261.6;;;22.27;100
17950;BME280;9100;48.700;9.316;2022-08-19T02:37:42;97256.4;;;22.27;100
17950;BME280;9100;48.700;9.316;2022-08-19T02:38:42;97253;;;22.26;100
17950;BME280;9100;48.700;9.316;2022-08-19T02:39:42;97251.70000000001;;;22.23;100
17950;BME280;9100;48.700;9.316;2022-08-19T02:40:04;97255.9;;;22.24;100
17950;BME280;9100;48.700;9.316;2022-08-19T02:40:47;97243.6;;;22.25;100
17950;BME280;9100;48.700;9.316;2022-08-19T02:41:42;97250.40000000001;;;22.26;100
17950;BME280;9100;48.700;9.316;2022-08-19T02:42:42;97251.2;;;22.27;100
17950;BME280;9100;48.700;9.316;2022-08-19T02:43:42;97251.2;;;22.27;100
17950;BME280;9100;48.700;9.316;2022-08-19T02:44:42;97245.2;;;22.26;100
17950;BME280;9100;48.700;9.316;2022-08-19T02:45:04;97248.5;;;22.27;100
17950;BME280;9100;48.700;9.316;2022-08-19T02:45:42;97246;;;22.27;100
17950;BME280;9100;48.700;9.316;2022-08-19T02:46:42;97249.59999999999;;;22.26;100
17950;BME280;9100;48.700;9.316;2022-08-19T02:47:42;97244.4;;;22.26;100
17950;BME280;9100;48.700;9.316;2022-08-19T02:48:42;97245.4;;;22.24;100
17950;BME280;9100;48.700;9.316;2022-08-19T02:49:42;97242.8;;;22.24;100
17950;BME280;9100;48.700;9.316;2022-08-19T02:50:04;97240.20000000001;;;22.24;100
17950;BME280;9100;48.700;9.316;2022-08-19T02:50:42;97245.2;;;22.26;100
17950;BME280;9100;48.700;9.316;2022-08-19T02:51:43;97237.09999999999;;;22.28;100
17950;BME280;9100;48.700;9.316;2022-08-19T02:52:42;97241.5;;;22.27;100
17950;BME280;9100;48.700;9.316;2022-08-19T02:53:42;97238.09999999999;;;22.27;100
17950;BME280;9100;48.700;9.316;2022-08-19T02:54:42;97241.8;;;22.26;100
17950;BME280;9100;48.700;9.316;2022-08-19T02:55:04;97240.7;;;22.27;100
17950;BME280;9100;48.700;9.316;2022-08-19T02:55:42;97241.8;;;22.26;100
17950;BME280;9100;48.700;9.316;2022-08-19T02:56:42;97243.6;;;22.25;100
17950;BME280;9100;48.700;9.316;2022-08-19T02:57:42;97240.7;;;22.27;100
17950;BME280;9100;48.700;9.316;2022-08-19T02:58:42;97242.6;;;22.26;100
17950;BME280;9100;48.700;9.316;2022-08-19T02:59:42;97240;;;22.26;100
17950;BME280;9100;48.700;9.316;2022-08-19T03:00:04;97236.6;;;22.26;100
17950;BME280;9100;48.700;9.316;2022-08-19T03:00:43;97240.7;;;22.27;100
17950;BME280;9100;48.700;9.316;2022-08-19T03:01:42;97241.5;;;22.27;100
17950;BME280;9100;48.700;9.316;2022-08-19T03:02:42;97242.1;;;22.24;100
17950;BME280;9100;48.700;9.316;2022-08-19T03:03:42;97244.9;;;22.22;100
17950;BME280;9100;48.700;9.316;2022-08-19T03:04:42;97244.9;;;22.22;100
17950;BME280;9100;48.700;9.316;2022-08-19T03:05:04;97240;;;22.21;100
17950;BME280;9100;48.700;9.316;2022-08-19T03:05:42;97251.70000000001;;;22.23;100
17950;BME280;9100;48.700;9.316;2022-08-19T03:06:43;97252.70000000001;;;22.22;100
17950;BME280;9100;48.700;9.316;2022-08-19T03:07:42;97259;;;22.21;100
17950;BME280;9100;48.700;9.316;2022-08-19T03:08:43;97250.59999999999;;;22.19;100
17950;BME280;9100;48.700;9.316;2022-08-19T03:09:42;97261.1;;;22.19;100
17950;BME280;9100;48.700;9.316;2022-08-19T03:10:04;97258.7;;;22.18;100
17950;BME280;9100;48.700;9.316;2022-08-19T03:10:42;97254.8;;;22.2;100
17950;BME280;9100;48.700;9.316;2022-08-19T03:11:42;97261.1;;;22.19;100
17950;BME280;9100;48.700;9.316;2022-08-19T03:12:42;97257.7;;;22.19;100
17950;BME280;9100;48.700;9.316;2022-08-19T03:13:42;97259.5;;;22.18;100
17950;BME280;9100;48.700;9.316;2022-08-19T03:14:42;97267.3;;;22.18;100
17950;BME280;9100;48.700;9.316;2022-08-19T03:15:04;97258.7;;;22.18;100
17950;BME280;9100;48.700;9.316;2022-08-19T03:15:43;97266.3;;;22.19;100
17950;BME280;9100;48.700;9.316;2022-08-19T03:16:44;97265.20000000001;;;22.2;100
17950;BME280;9100;48.700;9.316;2022-08-19T03:17:42;97264.70000000001;;;22.18;100
17950;BME280;9100;48.700;9.316;2022-08-19T03:18:42;97267.1;;;22.2;100
17950;BME280;9100;48.700;9.316;2022-08-19T03:19:42;97264.70000000001;;;22.18;100
17950;BME280;9100;48.700;9.316;2022-08-19T03:20:04;97265.20000000001;;;22.2;100
17950;BME280;9100;48.700;9.316;2022-08-19T03:20:42;97266.3;;;22.19;100
17950;BME280;9100;48.700;9.316;2022-08-19T03:21:42;97269.9;;;22.18;100
17950;BME280;9100;48.700;9.316;2022-08-19T03:22:42;97270.2;;;22.17;100
17950;BME280;9100;48.700;9.316;2022-08-19T03:23:42;97276.4;;;22.16;100
17950;BME280;9100;48.700;9.316;2022-08-19T03:24:42;97279.3;;;22.14;100
17950;BME280;9100;48.700;9.316;2022-08-19T03:25:04;97275.59999999999;;;22.15;100
17950;BME280;9100;48.700;9.316;2022-08-19T03:25:43;97280.6;;;22.17;100
17950;BME280;9100;48.700;9.316;2022-08-19T03:26:43;97279.8;;;22.16;100
17950;BME280;9100;48.700;9.316;2022-08-19T03:27:42;97281.6;;;22.16;100
17950;BME280;9100;48.700;9.316;2022-08-19T03:28:42;97275.59999999999;;;22.15;100
17950;BME280;9100;48.700;9.316;2022-08-19T03:29:42;97273.29999999999;;;22.14;100
17950;BME280;9100;48.700;9.316;2022-08-19T03:30:04;97269.1;;;22.13;100
17950;BME280;9100;48.700;9.316;2022-08-19T03:30:42;97266.3;;;22.14;100
17950;BME280;9100;48.700;9.316;2022-08-19T03:31:43;97262.09999999999;;;22.13;100
17950;BME280;9100;48.700;9.316;2022-08-19T03:32:42;97268.9;;;22.14;100
17950;BME280;9100;48.700;9.316;2022-08-19T03:33:42;97265.5;;;22.14;100
17950;BME280;9100;48.700;9.316;2022-08-19T03:34:42;97269.4;;;22.11;100
17950;BME280;9100;48.700;9.316;2022-08-19T03:35:04;97268.4;;;22.12;100
17950;BME280;9100;48.700;9.316;2022-08-19T03:35:42;97269.1;;;22.13;100
17950;BME280;9100;48.700;9.316;2022-08-19T03:36:42;97271.8;;;22.13;100
17950;BME280;9100;48.700;9.316;2022-08-19T03:37:42;97267.6;;;22.12;100
17950;BME280;9100;48.700;9.316;2022-08-19T03:38:43;97266.8;;;22.11;100
17950;BME280;9100;48.700;9.316;2022-08-19T03:39:42;97274.59999999999;;;22.11;100
17950;BME280;9100;48.700;9.316;2022-08-19T03:40:04;97270.5;;;22.1;100
17950;BME280;9100;48.700;9.316;2022-08-19T03:40:42;97274.59999999999;;;22.11;100
17950;BME280;9100;48.700;9.316;2022-08-19T03:41:43;97270.2;;;22.12;100
17950;BME280;9100;48.700;9.316;2022-08-19T03:42:42;97278.8;;;22.12;100
17950;BME280;9100;48.700;9.316;2022-08-19T03:43:42;97269.4;;;22.11;100
17950;BME280;9100;48.700;9.316;2022-08-19T03:44:42;97268.9;;;22.09;100
17950;BME280;9100;48.700;9.316;2022-08-19T03:45:04;97267.1;;;22.1;100
17950;BME280;9100;48.700;9.316;2022-08-19T03:45:42;97266.3;;;22.09;100
17950;BME280;9100;48.700;9.316;2022-08-19T03:46:42;97271.5;;;22.09;100
17950;BME280;9100;48.700;9.316;2022-08-19T03:47:42;97266.3;;;22.09;100
17950;BME280;9100;48.700;9.316;2022-08-19T03:48:42;97266.5;;;22.08;100
17950;BME280;9100;48.700;9.316;2022-08-19T03:49:42;97270.5;;;22.05;100
17950;BME280;9100;48.700;9.316;2022-08-19T03:50:04;97268.1;;;22.04;100
17950;BME280;9100;48.700;9.316;2022-08-19T03:50:42;97268.9;;;22.04;100
17950;BME280;9100;48.700;9.316;2022-08-19T03:51:42;97274.90000000001;;;22.05;100
17950;BME280;9100;48.700;9.316;2022-08-19T03:52:42;97273.29999999999;;;22.04;100
17950;BME280;9100;48.700;9.316;2022-08-19T03:53:42;97272.5;;;22.03;100
17950;BME280;9100;48.700;9.316;2022-08-19T03:54:42;97273.6;;;22.02;100
17950;BME280;9100;48.700;9.316;2022-08-19T03:55:04;97276.2;;;22.02;100
17950;BME280;9100;48.700;9.316;2022-08-19T03:55:42;97275.40000000001;;;22.02;100
17950;BME280;9100;48.700;9.316;2022-08-19T03:56:42;97275.59999999999;;;22;100
17950;BME280;9100;48.700;9.316;2022-08-19T03:57:42;97272.29999999999;;;22;100
17950;BME280;9100;48.700;9.316;2022-08-19T03:58:42;97272.29999999999;;;22;100
17950;BME280;9100;48.700;9.316;2022-08-19T03:59:42;97272.29999999999;;;22;100
17950;BME280;9100;48.700;9.316;2022-08-19T04:00:04;97270.7;;;21.99;100
17950;BME280;9100;48.700;9.316;2022-08-19T04:00:42;97273;;;22;100
17950;BME280;9100;48.700;9.316;2022-08-19T04:01:42;97221.8;;;21.65;100
17950;BME280;9100;48.700;9.316;2022-08-19T04:02:42;97281.4;;;21.97;100
17950;BME280;9100;48.700;9.316;2022-08-19T04:03:42;97280.9;;;21.95;100
17950;BME280;9100;48.700;9.316;2022-08-19T04:04:42;97276.9;;;21.93;100
17950;BME280;9100;48.700;9.316;2022-08-19T04:05:04;97278.8;;;21.92;100
17950;BME280;9100;48.700;9.316;2022-08-19T04:05:42;97279.3;;;21.94;100
17950;BME280;9100;48.700;9.316;2022-08-19T04:06:42;97275.40000000001;;;21.92;100
17950;BME280;9100;48.700;9.316;2022-08-19T04:07:42;97282.4;;;21.91;100
17950;BME280;9100;48.700;9.316;2022-08-19T04:08:43;97275.59999999999;;;21.9;100
17950;BME280;9100;48.700;9.316;2022-08-19T04:09:42;97272.79999999999;;;21.87;100
17950;BME280;9100;48.700;9.316;2022-08-19T04:10:04;97273.5;;;21.87;100
17950;BME280;9100;48.700;9.316;2022-08-19T04:10:42;97273.29999999999;;;21.89;100
17950;BME280;9100;48.700;9.316;2022-08-19T04:11:42;97271.2;;;21.86;100
17950;BME280;9100;48.700;9.316;2022-08-19T04:12:42;97272.5;;;21.83;100
17950;BME280;9100;48.700;9.316;2022-08-19T04:13:42;97270.9;;;21.82;100
17950;BME280;9100;48.700;9.316;2022-08-19T04:14:42;97264.20000000001;;;21.81;100
17950;BME280;9100;48.700;9.316;2022-08-19T04:15:04;97272;;;21.81;100
17950;BME280;9100;48.700;9.316;2022-08-19T04:15:43;97263.4;;;21.81;100
17950;BME280;9100;48.700;9.316;2022-08-19T04:16:42;97265.20000000001;;;21.8;100
17950;BME280;9100;48.700;9.316;2022-08-19T04:17:42;97271.5;;;21.79;100
17950;BME280;9100;48.700;9.316;2022-08-19T04:18:42;97263.9;;;21.77;100
17950;BME280;9100;48.700;9.316;2022-08-19T04:19:42;97265.20000000001;;;21.75;100
17950;BME280;9100;48.700;9.316;2022-08-19T04:20:04;97263.59999999999;;;21.74;100
17950;BME280;9100;48.700;9.316;2022-08-19T04:20:43;97262.59999999999;;;21.75;100
17950;BME280;9100;48.700;9.316;2022-08-19T04:21:42;97258.4;;;21.74;100
17950;BME280;9100;48.700;9.316;2022-08-19T04:22:42;97257.9;;;21.72;100
17950;BME280;9100;48.700;9.316;2022-08-19T04:23:42;97262.59999999999;;;21.7;100
17950;BME280;9100;48.700;9.316;2022-08-19T04:24:42;97253.5;;;21.67;100
17950;BME280;9100;48.700;9.316;2022-08-19T04:25:04;97259.5;;;21.68;100
17950;BME280;9100;48.700;9.316;2022-08-19T04:25:43;97255.8;;;21.69;100
17950;BME280;9100;48.700;9.316;2022-08-19T04:26:42;97256.9;;;21.68;100
17950;BME280;9100;48.700;9.316;2022-08-19T04:27:42;97257.9;;;21.67;100
17950;BME280;9100;48.700;9.316;2022-08-19T04:28:42;97264.20000000001;;;21.66;100
17950;BME280;9100;48.700;9.316;2022-08-19T04:29:42;97258.4;;;21.64;100
17950;BME280;9100;48.700;9.316;2022-08-19T04:30:04;97260.2;;;21.63;100
17950;BME280;9100;48.700;9.316;2022-08-19T04:30:42;97257.9;;;21.62;100
17950;BME280;9100;48.700;9.316;2022-08-19T04:31:42;97253.7;;;21.61;100